createdAt,value
2023-11-10T00:02:24.353Z,6.38
2023-11-10T00:04:51.194Z,6.38
2023-11-10T00:07:18.390Z,6.41
2023-11-10T00:09:46.564Z,6.40
2023-11-10T00:12:14.140Z,6.41
2023-11-10T00:14:43.242Z,6.42
2023-11-10T00:17:10.982Z,6.44
2023-11-10T00:19:38.371Z,6.46
2023-11-10T00:22:06.062Z,6.50
2023-11-10T00:24:34.772Z,6.51
2023-11-10T00:27:01.757Z,6.51
2023-11-10T00:29:28.379Z,6.53
2023-11-10T00:31:55.133Z,6.56
2023-11-10T00:34:21.646Z,6.58
2023-11-10T00:36:48.675Z,6.59
2023-11-10T00:39:17.104Z,6.60
2023-11-10T00:41:45.589Z,6.60
2023-11-10T00:44:12.055Z,6.59
2023-11-10T00:46:38.644Z,6.61
2023-11-10T00:49:05.186Z,6.60
2023-11-10T00:51:33.440Z,6.60
2023-11-10T00:54:01.245Z,6.61
2023-11-10T00:56:27.799Z,6.61
2023-11-10T00:58:54.477Z,6.62
2023-11-10T01:01:21.043Z,6.62
2023-11-10T01:03:47.714Z,6.61
2023-11-10T01:06:15.030Z,6.63
2023-11-10T01:08:41.494Z,6.63
2023-11-10T01:11:08.476Z,6.61
2023-11-10T01:13:36.068Z,6.62
2023-11-10T01:16:02.886Z,6.60
2023-11-10T01:18:29.386Z,6.60
2023-11-10T01:20:56.246Z,6.63
2023-11-10T01:23:22.860Z,6.63
2023-11-10T01:25:49.541Z,6.63
2023-11-10T01:28:16.514Z,6.63
2023-11-10T01:30:42.971Z,6.61
2023-11-10T01:33:10.393Z,6.62
2023-11-10T01:35:37.065Z,6.63
2023-11-10T01:38:03.486Z,6.61
2023-11-10T01:40:37.922Z,6.61
2023-11-10T01:43:16.168Z,6.62
2023-11-10T01:45:45.057Z,6.64
2023-11-10T01:48:12.947Z,6.65
2023-11-10T01:50:41.505Z,6.66
2023-11-10T01:53:11.726Z,6.67
2023-11-10T01:55:39.096Z,6.68
2023-11-10T01:58:08.502Z,6.72
2023-11-10T02:00:35.126Z,6.72
2023-11-10T02:03:07.528Z,6.72
2023-11-10T02:05:34.816Z,6.74
2023-11-10T02:08:03.973Z,6.75
2023-11-10T02:10:30.449Z,6.76
2023-11-10T02:12:58.023Z,6.76
2023-11-10T02:15:25.749Z,6.76
2023-11-10T02:17:53.074Z,6.77
2023-11-10T02:20:19.830Z,6.76
2023-11-10T02:22:50.849Z,6.75
2023-11-10T02:25:21.358Z,6.76
2023-11-10T02:27:48.523Z,6.76
2023-11-10T02:30:15.125Z,6.79
2023-11-10T02:32:44.445Z,6.81
2023-11-10T02:35:11.425Z,6.83
2023-11-10T02:37:38.670Z,6.85
2023-11-10T02:40:08.490Z,6.85
2023-11-10T02:42:35.796Z,6.85
2023-11-10T02:45:04.042Z,6.87
2023-11-10T02:47:32.000Z,6.87
2023-11-10T02:49:58.897Z,6.86
2023-11-10T02:52:26.522Z,6.86
2023-11-10T02:54:53.017Z,6.85
2023-11-10T02:57:19.564Z,6.86
2023-11-10T02:59:46.186Z,6.87
2023-11-10T03:02:12.743Z,6.89
2023-11-10T03:04:41.103Z,6.88
2023-11-10T03:07:07.730Z,6.88
2023-11-10T03:09:35.419Z,6.89
2023-11-10T03:12:01.807Z,6.89
2023-11-10T03:14:28.650Z,6.91
2023-11-10T03:16:55.031Z,6.92
2023-11-10T03:19:21.467Z,6.94
2023-11-10T03:21:47.951Z,6.96
2023-11-10T03:24:14.380Z,6.97
2023-11-10T03:26:41.293Z,6.98
2023-11-10T03:29:08.156Z,6.98
2023-11-10T03:31:35.212Z,6.98
2023-11-10T03:34:02.543Z,6.98
2023-11-10T03:36:29.287Z,6.98
2023-11-10T03:38:55.858Z,6.99
2023-11-10T03:41:22.334Z,6.99
2023-11-10T03:43:49.564Z,7.00
2023-11-10T03:46:16.275Z,7.00
2023-11-10T03:48:42.869Z,6.97
2023-11-10T03:51:13.167Z,6.99
2023-11-10T03:53:43.327Z,7.00
2023-11-10T03:56:09.943Z,6.99
2023-11-10T03:58:36.412Z,6.99
2023-11-10T04:01:08.474Z,6.98
2023-11-10T04:03:35.031Z,6.98
2023-11-10T04:06:01.511Z,6.98
2023-11-10T04:08:28.024Z,6.97
2023-11-10T04:10:54.481Z,6.97
2023-11-10T04:13:21.242Z,6.98
2023-11-10T04:15:49.278Z,7.00
2023-11-10T04:18:17.898Z,6.99
2023-11-10T04:20:46.022Z,6.99
2023-11-10T04:23:12.592Z,7.00
2023-11-10T04:25:38.994Z,6.99
2023-11-10T04:28:05.485Z,6.99
2023-11-10T04:30:31.975Z,7.01
2023-11-10T04:32:58.547Z,7.01
2023-11-10T04:35:24.970Z,7.00
2023-11-10T04:37:51.699Z,6.99
2023-11-10T04:40:19.454Z,7.01
2023-11-10T04:42:46.000Z,7.00
2023-11-10T04:45:14.589Z,7.00
2023-11-10T04:47:41.213Z,7.02
2023-11-10T04:50:08.125Z,7.01
2023-11-10T04:52:35.052Z,7.02
2023-11-10T04:55:01.493Z,7.01
2023-11-10T04:57:28.024Z,7.02
2023-11-10T04:59:55.560Z,7.03
2023-11-10T05:02:23.679Z,7.02
2023-11-10T05:04:51.127Z,7.01
2023-11-10T05:07:17.531Z,7.01
2023-11-10T05:09:43.991Z,6.98
2023-11-10T05:12:10.525Z,6.98
2023-11-10T05:14:40.505Z,6.95
2023-11-10T05:17:07.322Z,6.94
2023-11-10T05:19:34.498Z,6.93
2023-11-10T05:22:00.950Z,6.92
2023-11-10T05:24:27.432Z,6.91
2023-11-10T05:26:54.105Z,6.92
2023-11-10T05:29:21.782Z,6.90
2023-11-10T05:31:48.789Z,6.89
2023-11-10T05:34:18.004Z,6.88
2023-11-10T05:36:45.089Z,6.88
2023-11-10T05:39:11.596Z,6.83
2023-11-10T05:41:38.082Z,6.81
2023-11-10T05:44:05.420Z,6.75
2023-11-10T05:46:31.718Z,6.71
2023-11-10T05:48:58.215Z,6.68
2023-11-10T05:51:24.678Z,6.64
2023-11-10T05:53:51.114Z,6.60
2023-11-10T05:56:18.037Z,6.55
2023-11-10T05:58:45.159Z,6.51
2023-11-10T06:01:11.648Z,6.46
2023-11-10T06:03:38.689Z,6.43
2023-11-10T06:06:05.404Z,6.37
2023-11-10T06:08:34.828Z,6.33
2023-11-10T06:11:02.328Z,6.29
2023-11-10T06:13:30.197Z,6.27
2023-11-10T06:16:00.554Z,6.24
2023-11-10T06:18:27.046Z,6.23
2023-11-10T06:20:53.465Z,6.23
2023-11-10T06:23:19.912Z,6.22
2023-11-10T06:25:46.274Z,6.21
2023-11-10T06:28:12.781Z,6.21
2023-11-10T06:30:39.330Z,6.22
2023-11-10T06:33:05.913Z,6.23
2023-11-10T06:35:32.444Z,6.25
2023-11-10T06:37:58.873Z,6.27
2023-11-10T06:40:29.312Z,6.29
2023-11-10T06:42:56.927Z,6.29
2023-11-10T06:45:23.602Z,6.30
2023-11-10T06:47:51.242Z,6.32
2023-11-10T06:50:17.981Z,6.34
2023-11-10T06:52:44.617Z,6.36
2023-11-10T06:55:14.757Z,6.37
2023-11-10T06:57:41.510Z,6.37
2023-11-10T07:00:12.276Z,6.37
2023-11-10T07:02:38.784Z,6.39
2023-11-10T07:05:05.783Z,6.38
2023-11-10T07:07:32.888Z,6.36
2023-11-10T07:10:02.366Z,6.36
2023-11-10T07:12:28.871Z,6.35
2023-11-10T07:14:55.507Z,6.34
2023-11-10T07:17:22.007Z,6.35
2023-11-10T07:19:48.685Z,6.36
2023-11-10T07:22:15.497Z,6.32
2023-11-10T07:24:42.097Z,6.33
2023-11-10T07:27:08.996Z,6.37
2023-11-10T07:29:35.497Z,6.37
2023-11-10T07:32:02.875Z,6.38
2023-11-10T07:34:30.726Z,6.38
2023-11-10T07:36:59.378Z,6.40
2023-11-10T07:39:32.092Z,6.38
2023-11-10T07:41:58.506Z,6.38
2023-11-10T07:44:25.270Z,6.39
2023-11-10T07:46:52.709Z,6.42
2023-11-10T07:49:19.269Z,6.44
2023-11-10T07:51:45.724Z,6.45
2023-11-10T07:54:17.842Z,6.46
2023-11-10T07:56:47.785Z,6.48
2023-11-10T07:59:14.231Z,6.51
2023-11-10T08:01:42.969Z,6.52
2023-11-10T08:04:11.177Z,6.55
2023-11-10T08:06:38.390Z,6.54
2023-11-10T08:09:05.305Z,6.58
2023-11-10T08:11:42.088Z,6.59
2023-11-10T08:14:15.944Z,6.60
2023-11-10T08:16:42.342Z,6.61
2023-11-10T08:19:11.199Z,6.63
2023-11-10T08:21:40.806Z,6.64
2023-11-10T08:24:07.513Z,6.66
2023-11-10T08:26:33.980Z,6.69
2023-11-10T08:29:00.430Z,6.71
2023-11-10T08:31:27.508Z,6.71
2023-11-10T08:33:53.973Z,6.72
2023-11-10T08:36:23.140Z,6.74
2023-11-10T08:38:50.197Z,6.74
2023-11-10T08:41:17.918Z,6.75
2023-11-10T08:43:44.369Z,6.77
2023-11-10T08:46:10.953Z,6.80
2023-11-10T08:48:38.241Z,6.85
2023-11-10T08:51:05.692Z,6.87
2023-11-10T08:53:32.094Z,6.92
2023-11-10T08:55:58.783Z,6.94
2023-11-10T08:58:25.175Z,6.97
2023-11-10T09:00:53.108Z,6.98
2023-11-10T09:03:20.432Z,7.03
2023-11-10T09:05:47.119Z,7.03
2023-11-10T09:08:13.460Z,7.05
2023-11-10T09:10:39.954Z,7.06
2023-11-10T09:13:06.495Z,7.08
2023-11-10T09:15:33.999Z,7.08
2023-11-10T09:18:00.818Z,7.08
2023-11-10T09:20:27.259Z,7.10
2023-11-10T09:22:53.718Z,7.09
2023-11-10T09:25:21.896Z,7.07
2023-11-10T09:27:48.548Z,7.08
2023-11-10T09:30:15.280Z,7.06
2023-11-10T09:32:42.493Z,7.10
2023-11-10T09:35:09.079Z,7.09
2023-11-10T09:37:35.584Z,7.10
2023-11-10T09:40:02.178Z,7.10
2023-11-10T09:42:29.247Z,7.11
2023-11-10T09:44:57.908Z,7.12
2023-11-10T09:47:26.197Z,7.16
2023-11-10T09:49:53.640Z,7.18
2023-11-10T09:52:21.829Z,7.22
2023-11-10T09:54:51.779Z,7.25
2023-11-10T09:57:18.926Z,7.25
2023-11-10T09:59:46.129Z,7.27
2023-11-10T10:02:19.365Z,7.31
2023-11-10T10:04:46.403Z,7.32
2023-11-10T10:07:13.973Z,7.34
2023-11-10T10:09:44.702Z,7.35
2023-11-10T10:12:13.067Z,7.38
2023-11-10T10:14:40.378Z,7.38
2023-11-10T10:17:12.130Z,7.41
2023-11-10T10:19:38.614Z,7.42
2023-11-10T10:22:05.239Z,7.44
2023-11-10T10:24:31.770Z,7.45
2023-11-10T10:26:58.586Z,7.48
2023-11-10T10:29:25.027Z,7.49
2023-11-10T10:31:51.694Z,7.51
2023-11-10T10:34:18.419Z,7.53
2023-11-10T10:36:45.971Z,7.56
2023-11-10T10:39:21.273Z,7.54
2023-11-10T10:41:49.201Z,7.53
2023-11-10T10:44:16.264Z,7.51
2023-11-10T10:46:43.620Z,7.51
2023-11-10T10:49:13.621Z,7.49
2023-11-10T10:51:40.208Z,7.46
2023-11-10T10:54:09.283Z,7.43
2023-11-10T10:56:44.450Z,7.37
2023-11-10T10:59:12.427Z,7.35
2023-11-10T11:01:38.909Z,7.32
2023-11-10T11:04:29.319Z,7.32
2023-11-10T11:07:23.129Z,7.32
2023-11-10T11:09:58.758Z,7.31
2023-11-10T11:12:37.402Z,7.30
2023-11-10T11:15:19.866Z,7.30
2023-11-10T11:18:08.696Z,7.29
2023-11-10T11:20:35.524Z,7.31
2023-11-10T11:23:05.432Z,7.33
2023-11-10T11:25:33.127Z,7.36
2023-11-10T11:28:00.218Z,7.40
2023-11-10T11:30:45.084Z,7.43
2023-11-10T11:33:11.739Z,7.45
2023-11-10T11:35:47.718Z,7.47
2023-11-10T11:38:28.431Z,7.51
2023-11-10T11:40:59.017Z,7.55
2023-11-10T11:43:25.637Z,7.57
2023-11-10T11:45:58.709Z,7.63
2023-11-10T11:48:25.169Z,7.66
2023-11-10T11:50:53.648Z,7.69
2023-11-10T11:53:23.454Z,7.74
2023-11-10T11:55:53.826Z,7.80
2023-11-10T11:58:21.359Z,7.79
2023-11-10T12:00:48.305Z,7.82
2023-11-10T12:03:15.278Z,7.83
2023-11-10T12:05:44.975Z,7.84
2023-11-10T12:08:17.209Z,7.83
2023-11-10T12:10:46.331Z,7.85
2023-11-10T12:13:17.952Z,7.86
2023-11-10T12:15:45.127Z,7.85
2023-11-10T12:18:12.711Z,7.86
2023-11-10T12:20:39.267Z,7.84
2023-11-10T12:23:05.628Z,7.82
2023-11-10T12:25:38.047Z,7.82
2023-11-10T12:28:06.212Z,7.82
2023-11-10T12:30:32.772Z,7.81
2023-11-10T12:32:59.369Z,7.82
2023-11-10T12:35:25.940Z,7.81
2023-11-10T12:37:54.005Z,7.82
2023-11-10T12:40:20.656Z,7.79
2023-11-10T12:42:48.395Z,7.75
2023-11-10T12:45:15.942Z,7.72
2023-11-10T12:47:56.625Z,7.68
2023-11-10T12:50:31.173Z,7.66
2023-11-10T12:52:57.873Z,7.65
2023-11-10T12:55:24.317Z,7.64
2023-11-10T12:57:51.337Z,7.62
2023-11-10T13:00:18.924Z,7.59
2023-11-10T13:02:46.212Z,7.56
2023-11-10T13:05:15.443Z,7.56
2023-11-10T13:07:44.235Z,7.54
2023-11-10T13:10:12.240Z,7.53
2023-11-10T13:12:42.381Z,7.52
2023-11-10T13:15:09.835Z,7.51
2023-11-10T13:17:37.737Z,7.49
2023-11-10T13:20:08.265Z,7.48
2023-11-10T13:22:34.745Z,7.46
2023-11-10T13:25:01.618Z,7.45
2023-11-10T13:27:28.809Z,7.46
2023-11-10T13:29:55.334Z,7.42
2023-11-10T13:32:22.160Z,7.42
2023-11-10T13:34:48.943Z,7.44
2023-11-10T13:37:16.140Z,7.46
2023-11-10T13:39:43.044Z,7.46
2023-11-10T13:42:11.853Z,7.45
2023-11-10T13:44:39.385Z,7.46
2023-11-10T13:47:09.245Z,7.47
2023-11-10T13:49:37.561Z,7.48
2023-11-10T13:52:03.988Z,7.53
2023-11-10T13:54:33.583Z,7.55
2023-11-10T13:57:00.483Z,7.55
2023-11-10T13:59:26.882Z,7.58
2023-11-10T14:01:53.339Z,7.59
2023-11-10T14:04:20.663Z,7.59
2023-11-10T14:06:48.588Z,7.62
2023-11-10T14:09:16.508Z,7.63
2023-11-10T14:11:43.334Z,7.62
2023-11-10T14:14:11.333Z,7.65
2023-11-10T14:16:38.558Z,7.63
2023-11-10T14:19:07.238Z,7.64
2023-11-10T14:21:35.068Z,7.64
2023-11-10T14:24:01.607Z,7.66
2023-11-10T14:26:28.353Z,7.64
2023-11-10T14:28:54.830Z,7.66
2023-11-10T14:31:21.435Z,7.63
2023-11-10T14:33:48.209Z,7.63
2023-11-10T14:36:14.631Z,7.61
2023-11-10T14:38:46.805Z,7.60
2023-11-10T14:41:17.592Z,7.60
2023-11-10T14:43:45.147Z,7.60
2023-11-10T14:46:12.809Z,7.59
2023-11-10T14:48:42.069Z,7.59
2023-11-10T14:51:13.230Z,7.61
2023-11-10T14:53:39.778Z,7.58
2023-11-10T14:56:06.842Z,7.59
2023-11-10T14:58:33.515Z,7.58
2023-11-10T15:01:00.115Z,7.57
2023-11-10T15:03:26.749Z,7.56
2023-11-10T15:05:53.146Z,7.54
2023-11-10T15:08:20.113Z,7.53
2023-11-10T15:10:47.330Z,7.50
2023-11-10T15:13:15.153Z,7.50
2023-11-10T15:15:48.150Z,7.48
2023-11-10T15:18:15.680Z,7.47
2023-11-10T15:20:42.609Z,7.46
2023-11-10T15:23:10.440Z,7.44
2023-11-10T15:25:38.125Z,7.43
2023-11-10T15:28:04.933Z,7.40
2023-11-10T15:30:33.479Z,7.39
2023-11-10T15:33:02.608Z,7.38
2023-11-10T15:35:30.106Z,7.38
2023-11-10T15:37:57.984Z,7.37
2023-11-10T15:40:24.966Z,7.38
2023-11-10T15:42:52.564Z,7.39
2023-11-10T15:45:20.550Z,7.39
2023-11-10T15:47:47.233Z,7.38
2023-11-10T15:50:14.464Z,7.37
2023-11-10T15:52:41.251Z,7.37
2023-11-10T15:55:09.667Z,7.36
2023-11-10T15:57:36.580Z,7.37
2023-11-10T16:00:05.584Z,7.38
2023-11-10T16:02:32.303Z,7.38
2023-11-10T16:04:58.977Z,7.36
2023-11-10T16:07:25.464Z,7.39
2023-11-10T16:09:52.490Z,7.40
2023-11-10T16:12:19.932Z,7.39
2023-11-10T16:14:46.584Z,7.39
2023-11-10T16:17:13.050Z,7.38
2023-11-10T16:19:39.518Z,7.39
2023-11-10T16:22:06.122Z,7.39
2023-11-10T16:24:32.737Z,7.40
2023-11-10T16:26:59.211Z,7.40
2023-11-10T16:29:25.664Z,7.38
2023-11-10T16:31:52.795Z,7.39
2023-11-10T16:34:20.092Z,7.40
2023-11-10T16:36:47.287Z,7.40
2023-11-10T16:39:14.007Z,7.41
2023-11-10T16:41:49.944Z,7.41
2023-11-10T16:44:17.177Z,7.40
2023-11-10T16:46:43.669Z,7.41
2023-11-10T16:49:13.293Z,7.41
2023-11-10T16:51:41.224Z,7.42
2023-11-10T16:54:08.295Z,7.45
2023-11-10T16:56:34.827Z,7.45
2023-11-10T16:59:01.339Z,7.45
2023-11-10T17:01:30.387Z,7.46
2023-11-10T17:03:57.542Z,7.48
2023-11-10T17:06:24.835Z,7.47
2023-11-10T17:08:51.230Z,7.47
2023-11-10T17:11:18.160Z,7.48
2023-11-10T17:13:44.616Z,7.48
2023-11-10T17:16:11.120Z,7.47
2023-11-10T17:18:37.849Z,7.49
2023-11-10T17:21:04.477Z,7.49
2023-11-10T17:23:32.177Z,7.49
2023-11-10T17:26:01.969Z,7.50
2023-11-10T17:28:28.553Z,7.50
2023-11-10T17:30:58.272Z,7.46
2023-11-10T17:33:25.246Z,7.47
2023-11-10T17:35:51.802Z,7.45
2023-11-10T17:38:18.336Z,7.42
2023-11-10T17:40:45.082Z,7.40
2023-11-10T17:43:13.413Z,7.39
2023-11-10T17:45:40.128Z,7.39
2023-11-10T17:48:06.652Z,7.40
2023-11-10T17:50:33.727Z,7.40
2023-11-10T17:53:02.060Z,7.36
2023-11-10T17:55:29.072Z,7.35
2023-11-10T17:57:55.934Z,7.35
2023-11-10T18:00:23.468Z,7.33
2023-11-10T18:02:51.076Z,7.32
2023-11-10T18:05:17.837Z,7.33
2023-11-10T18:07:44.342Z,7.30
2023-11-10T18:10:11.446Z,7.33
2023-11-10T18:12:38.354Z,7.27
2023-11-10T18:15:06.409Z,7.28
2023-11-10T18:17:33.514Z,7.27
2023-11-10T18:20:00.074Z,7.24
2023-11-10T18:22:26.774Z,7.22
2023-11-10T18:24:54.759Z,7.21
2023-11-10T18:27:25.180Z,7.19
2023-11-10T18:29:52.546Z,7.17
2023-11-10T18:32:18.961Z,7.18
2023-11-10T18:34:45.466Z,7.22
2023-11-10T18:37:12.014Z,7.25
2023-11-10T18:39:40.090Z,7.26
2023-11-10T18:42:06.890Z,7.29
2023-11-10T18:44:33.398Z,7.31
2023-11-10T18:46:59.914Z,7.33
2023-11-10T18:49:30.050Z,7.32
2023-11-10T18:51:57.947Z,7.30
2023-11-10T18:54:24.572Z,7.29
2023-11-10T18:56:51.046Z,7.31
2023-11-10T18:59:18.015Z,7.33
2023-11-10T19:01:44.514Z,7.30
2023-11-10T19:04:11.304Z,7.31
2023-11-10T19:06:39.467Z,7.32
2023-11-10T19:09:06.649Z,7.32
2023-11-10T19:11:33.068Z,7.32
2023-11-10T19:13:59.550Z,7.31
2023-11-10T19:16:26.206Z,7.28
2023-11-10T19:18:52.613Z,7.25
2023-11-10T19:21:19.171Z,7.27
2023-11-10T19:23:45.629Z,7.25
2023-11-10T19:26:12.904Z,7.21
2023-11-10T19:28:39.266Z,7.17
2023-11-10T19:31:06.056Z,7.15
2023-11-10T19:33:32.796Z,7.15
2023-11-10T19:35:59.285Z,7.15
2023-11-10T19:38:25.746Z,7.18
2023-11-10T19:40:52.206Z,7.21
2023-11-10T19:43:19.033Z,7.16
2023-11-10T19:45:45.561Z,7.13
2023-11-10T19:48:12.103Z,7.16
2023-11-10T19:50:38.620Z,7.18
2023-11-10T19:53:05.194Z,7.18
2023-11-10T19:55:39.128Z,7.18
2023-11-10T19:59:18.894Z,7.15
2023-11-10T20:03:23.090Z,7.12
2023-11-10T20:05:49.746Z,7.09
2023-11-10T20:08:16.156Z,7.07
2023-11-10T20:10:42.661Z,7.07
2023-11-10T20:13:09.032Z,7.08
2023-11-10T20:15:36.581Z,7.06
2023-11-10T20:18:03.440Z,7.07
2023-11-10T20:20:30.046Z,7.04
2023-11-10T20:22:56.673Z,7.03
2023-11-10T20:25:23.171Z,7.05
2023-11-10T20:27:49.586Z,7.07
2023-11-10T20:30:19.345Z,7.06
2023-11-10T20:32:45.844Z,7.03
2023-11-10T20:35:12.698Z,6.99
2023-11-10T20:37:39.189Z,7.04
2023-11-10T20:40:10.648Z,7.04
2023-11-10T20:42:37.277Z,7.04
2023-11-10T20:45:05.175Z,7.09
2023-11-10T20:47:31.683Z,7.05
2023-11-10T20:49:58.192Z,7.04
2023-11-10T20:52:24.686Z,7.04
2023-11-10T20:54:51.191Z,7.02
2023-11-10T20:57:17.736Z,7.00
2023-11-10T20:59:44.117Z,6.98
2023-11-10T21:02:11.113Z,6.97
2023-11-10T21:04:37.795Z,6.97
2023-11-10T21:07:04.401Z,6.97
2023-11-10T21:09:30.932Z,6.96
2023-11-10T21:11:57.604Z,6.98
2023-11-10T21:14:24.221Z,6.96
2023-11-10T21:16:51.080Z,6.97
2023-11-10T21:19:17.589Z,6.97
2023-11-10T21:21:48.658Z,6.97
2023-11-10T21:24:15.943Z,6.97
2023-11-10T21:26:46.303Z,6.98
2023-11-10T21:29:12.756Z,6.98
2023-11-10T21:31:39.162Z,6.98
2023-11-10T21:34:05.774Z,6.95
2023-11-10T21:36:32.393Z,6.95
2023-11-10T21:38:58.963Z,6.93
2023-11-10T21:41:28.064Z,6.94
2023-11-10T21:43:57.432Z,6.92
2023-11-10T21:46:23.936Z,6.91
2023-11-10T21:48:51.027Z,6.91
2023-11-10T21:51:18.600Z,6.93
2023-11-10T21:53:45.638Z,6.90
2023-11-10T21:56:20.689Z,6.87
2023-11-10T21:58:47.604Z,6.90
2023-11-10T22:01:17.200Z,6.89
2023-11-10T22:03:44.898Z,6.87
2023-11-10T22:06:12.301Z,6.88
2023-11-10T22:08:41.638Z,6.88
2023-11-10T22:11:11.782Z,6.86
2023-11-10T22:13:39.240Z,6.87
2023-11-10T22:16:06.436Z,6.87
2023-11-10T22:18:33.379Z,6.89
2023-11-10T22:20:59.897Z,6.89
2023-11-10T22:23:26.433Z,6.88
2023-11-10T22:25:52.872Z,6.88
2023-11-10T22:28:20.890Z,6.83
2023-11-10T22:30:47.897Z,6.83
2023-11-10T22:33:14.935Z,6.84
2023-11-10T22:35:41.362Z,6.82
2023-11-10T22:38:08.301Z,6.83
2023-11-10T22:40:35.705Z,6.80
2023-11-10T22:43:02.211Z,6.80
2023-11-10T22:45:29.461Z,6.81
2023-11-10T22:47:56.092Z,6.80
2023-11-10T22:50:22.466Z,6.78
2023-11-10T22:52:48.914Z,6.75
2023-11-10T22:55:17.554Z,6.73
2023-11-10T22:57:44.695Z,6.73
2023-11-10T23:00:28.169Z,6.71
2023-11-10T23:02:56.268Z,6.69
2023-11-10T23:05:23.015Z,6.64
2023-11-10T23:07:49.510Z,6.64
2023-11-10T23:10:16.820Z,6.62
2023-11-10T23:12:44.742Z,6.61
2023-11-10T23:15:12.122Z,6.59
2023-11-10T23:17:41.656Z,6.59
2023-11-10T23:20:16.303Z,6.58
2023-11-10T23:22:49.637Z,6.57
2023-11-10T23:25:16.046Z,6.55
2023-11-10T23:27:42.578Z,6.54
2023-11-10T23:30:11.365Z,6.53
2023-11-10T23:32:38.638Z,6.51
2023-11-10T23:35:06.101Z,6.50
2023-11-10T23:37:34.013Z,6.47
2023-11-10T23:40:00.763Z,6.46
2023-11-10T23:42:28.694Z,6.47
2023-11-10T23:44:55.605Z,6.47
2023-11-10T23:47:21.954Z,6.49
2023-11-10T23:49:48.374Z,6.48
2023-11-10T23:52:15.083Z,6.47
2023-11-10T23:54:41.529Z,6.44
2023-11-10T23:57:08.046Z,6.46
2023-11-10T23:59:34.428Z,6.45
